Time;durP1;ratioP1;P1;durP2;ratioP2;P2;SDS_P1;SDS_P2;PMS_P1;PMS_P2;Temp;Humidity;BMP_temperature;BMP_pressure;BME280_temperature;BME280_humidity;BME280_pressure;Samples;Min_cycle;Max_cycle;Signal;HPM_P1;HPM_P2
2022/09/21 00:01:30;;;;;;;3.83;1.25;;;17.50;99.90;;;;;;5053462;28;20028;-83
2022/09/21 00:04:00;;;;;;;11.18;1.38;;;17.50;99.90;;;;;;5053913;28;20031;-83
2022/09/21 00:06:31;;;;;;;4.15;1.02;;;17.50;99.90;;;;;;5052135;28;20098;-83
2022/09/21 00:08:59;;;;;;;7.40;1.63;;;17.50;99.90;;;;;;5052122;28;20018;-82
2022/09/21 00:11:29;;;;;;;7.55;1.23;;;17.60;99.90;;;;;;5051778;28;20091;-84
2022/09/21 00:14:01;;;;;;;10.25;1.75;;;17.50;99.90;;;;;;5054386;28;20055;-83
2022/09/21 00:16:30;;;;;;;4.82;1.42;;;17.50;99.90;;;;;;5047642;28;20032;-84
2022/09/21 00:18:58;;;;;;;6.57;1.17;;;17.40;99.90;;;;;;5050518;28;20117;-79
2022/09/21 00:21:27;;;;;;;7.93;1.50;;;17.50;99.90;;;;;;5053103;28;20267;-74
2022/09/21 00:23:55;;;;;;;4.35;1.23;;;17.40;99.90;;;;;;5054113;28;20021;-83
2022/09/21 00:26:25;;;;;;;7.68;1.92;;;17.40;99.90;;;;;;5052106;28;20079;-81
2022/09/21 00:29:03;;;;;;;5.70;1.23;;;17.30;99.90;;;;;;5052434;28;20025;-84
2022/09/21 00:31:31;;;;;;;5.30;1.00;;;17.40;99.90;;;;;;5052697;28;20045;-85
2022/09/21 00:34:02;;;;;;;5.55;1.63;;;17.40;99.90;;;;;;5052901;28;20040;-81
2022/09/21 00:36:30;;;;;;;7.20;1.40;;;17.40;99.90;;;;;;5053138;28;20048;-81
2022/09/21 00:39:00;;;;;;;5.30;1.30;;;17.30;99.90;;;;;;5053503;28;20025;-82
2022/09/21 00:41:30;;;;;;;3.80;1.27;;;17.40;99.90;;;;;;5052701;28;20094;-84
2022/09/21 00:44:22;;;;;;;10.00;0.85;;;17.40;99.90;;;;;;5052647;28;20017;-85
2022/09/21 00:46:52;;;;;;;5.18;1.30;;;17.50;99.90;;;;;;5050784;28;20017;-84
2022/09/21 00:49:21;;;;;;;7.00;1.38;;;17.50;99.90;;;;;;5051559;28;20028;-86
2022/09/21 00:51:52;;;;;;;6.53;1.15;;;17.60;99.90;;;;;;5050121;28;20028;-83
2022/09/21 00:54:35;;;;;;;8.65;1.40;;;17.70;99.90;;;;;;5052755;28;20029;-83
2022/09/21 00:57:04;;;;;;;7.22;1.75;;;17.80;99.90;;;;;;5051620;28;20429;-84
2022/09/21 00:59:35;;;;;;;6.40;1.33;;;17.80;99.90;;;;;;5052837;28;20420;-83
2022/09/21 01:02:03;;;;;;;13.50;1.65;;;17.90;99.90;;;;;;5055112;28;20123;-79
2022/09/21 01:04:31;;;;;;;8.18;1.60;;;18.00;99.90;;;;;;5053604;28;20021;-83
2022/09/21 01:07:04;;;;;;;9.35;1.80;;;18.00;99.90;;;;;;5053553;28;20025;-84
2022/09/21 01:09:32;;;;;;;6.97;1.77;;;18.10;99.90;;;;;;5051489;28;20048;-84
2022/09/21 01:12:03;;;;;;;8.60;1.38;;;18.10;99.90;;;;;;5055366;28;20459;-83
2022/09/21 01:14:44;;;;;;;4.18;1.42;;;18.10;99.90;;;;;;5051380;28;20032;-84
2022/09/21 01:17:27;;;;;;;6.25;1.33;;;18.10;99.90;;;;;;5051924;28;20013;-79
2022/09/21 01:20:17;;;;;;;2.97;1.20;;;18.20;99.90;;;;;;5049961;28;20496;-87
2022/09/21 01:23:22;;;;;;;6.28;1.65;;;18.20;99.90;;;;;;5052729;28;20029;-82
2022/09/21 01:26:05;;;;;;;4.95;1.38;;;18.20;99.90;;;;;;5050796;28;20033;-82
2022/09/21 01:29:03;;;;;;;8.32;1.38;;;18.10;99.90;;;;;;5050806;28;20565;-77
2022/09/21 01:31:48;;;;;;;4.00;1.25;;;18.10;99.90;;;;;;5052861;28;20028;-80
2022/09/21 01:34:24;;;;;;;3.65;0.82;;;18.10;99.90;;;;;;5052782;28;20040;-84
2022/09/21 01:36:53;;;;;;;;;;;18.10;99.90;;;;;;5052852;28;20417;-81
2022/09/21 01:39:22;;;;;;;4.05;1.25;;;18.10;99.90;;;;;;5052237;28;20023;-82
2022/09/21 01:41:52;;;;;;;5.55;1.20;;;18.10;99.90;;;;;;5052670;28;20135;-84
2022/09/21 01:44:23;;;;;;;6.95;1.13;;;18.10;99.90;;;;;;5052629;28;20013;-81
2022/09/21 01:46:52;;;;;;;5.63;1.27;;;18.10;99.90;;;;;;5052784;28;20025;-83
2022/09/21 01:49:34;;;;;;;6.72;1.30;;;18.10;99.90;;;;;;5052561;28;20079;-83
2022/09/21 01:52:17;;;;;;;6.22;2.28;;;18.00;99.90;;;;;;5050525;28;20466;-70
2022/09/21 01:55:03;;;;;;;5.45;1.13;;;18.00;99.90;;;;;;5048871;28;20025;-83
2022/09/21 01:58:03;;;;;;;10.45;1.17;;;18.00;99.90;;;;;;5048896;28;20017;-71
2022/09/21 02:00:33;;;;;;;7.40;1.08;;;17.90;99.90;;;;;;5048564;28;20029;-75
2022/09/21 02:03:22;;;;;;;9.48;1.80;;;17.90;99.90;;;;;;5047343;28;20118;-81
2022/09/21 02:05:49;;;;;;;4.18;1.00;;;18.00;99.90;;;;;;5049632;28;20021;-82
2022/09/21 02:08:17;;;;;;;5.68;1.60;;;18.00;99.90;;;;;;5051465;28;20067;-81
2022/09/21 02:10:52;;;;;;;7.20;1.30;;;18.10;99.90;;;;;;5052414;28;20485;-81
2022/09/21 02:13:24;;;;;;;8.95;2.63;;;18.10;99.90;;;;;;5054322;28;20120;-82
2022/09/21 02:15:51;;;;;;;8.45;1.23;;;18.20;99.90;;;;;;5055993;28;20078;-82
2022/09/21 02:18:39;;;;;;;8.43;1.45;;;18.20;99.90;;;;;;5055852;28;20025;-75
2022/09/21 02:21:22;;;;;;;6.70;1.63;;;18.30;99.90;;;;;;5055749;28;20091;-82
2022/09/21 02:24:10;;;;;;;11.02;1.27;;;18.30;99.90;;;;;;5055700;28;20389;-82
2022/09/21 02:26:48;;;;;;;6.43;1.52;;;18.40;99.90;;;;;;5056176;28;20481;-82
2022/09/21 02:29:39;;;;;;;4.63;0.93;;;18.30;99.90;;;;;;5055715;28;20029;-82
2022/09/21 02:32:24;;;;;;;9.68;1.85;;;18.30;99.90;;;;;;5055567;28;20108;-82
2022/09/21 02:35:18;;;;;;;5.23;1.47;;;18.40;99.90;;;;;;5055521;28;20021;-82
2022/09/21 02:38:03;;;;;;;5.38;1.50;;;18.40;99.90;;;;;;5036335;28;20040;-83
2022/09/21 02:40:40;;;;;;;7.43;2.13;;;18.40;99.90;;;;;;5055458;28;20112;-82
2022/09/21 02:43:35;;;;;;;13.25;2.10;;;18.40;99.90;;;;;;5055417;28;20071;-82
2022/09/21 02:46:29;;;;;;;8.65;1.85;;;18.50;99.90;;;;;;5055331;28;20031;-85
2022/09/21 02:49:10;;;;;;;7.10;1.55;;;18.50;99.90;;;;;;5055419;28;20025;-78
2022/09/21 02:51:46;;;;;;;11.30;1.30;;;18.40;99.90;;;;;;5055309;28;20028;-81
2022/09/21 02:54:22;;;;;;;6.30;1.38;;;18.50;99.90;;;;;;5055545;28;20045;-82
2022/09/21 02:56:51;;;;;;;3.83;1.17;;;18.40;99.90;;;;;;5055034;28;20041;-83
2022/09/21 02:59:21;;;;;;;4.13;1.30;;;18.30;99.90;;;;;;5053654;28;20028;-81
2022/09/21 03:01:49;;;;;;;7.93;1.38;;;18.30;99.90;;;;;;5054918;28;20037;-82
2022/09/21 03:04:22;;;;;;;4.50;1.42;;;18.30;99.90;;;;;;5054979;28;20563;-82
2022/09/21 03:06:50;;;;;;;12.65;2.08;;;18.40;99.90;;;;;;5055005;28;20105;-82
2022/09/21 03:09:20;;;;;;;9.10;1.73;;;18.30;99.90;;;;;;5054935;28;20071;-82
2022/09/21 03:11:47;;;;;;;5.43;1.35;;;18.30;99.90;;;;;;5054664;28;20453;-83
2022/09/21 03:14:16;;;;;;;7.10;1.25;;;18.30;99.90;;;;;;5054700;28;20119;-78
2022/09/21 03:16:43;;;;;;;3.55;1.45;;;18.30;99.90;;;;;;5054478;28;20027;-71
2022/09/21 03:19:11;;;;;;;6.57;1.88;;;18.30;99.90;;;;;;5054581;28;20532;-77
2022/09/21 03:21:39;;;;;;;8.93;1.80;;;18.30;99.90;;;;;;5054737;28;20025;-70
2022/09/21 03:24:07;;;;;;;4.95;1.30;;;18.40;99.90;;;;;;5054631;28;20053;-76
2022/09/21 03:26:35;;;;;;;7.30;1.33;;;18.40;99.90;;;;;;5054598;28;20025;-78
2022/09/21 03:29:03;;;;;;;10.85;1.67;;;18.40;99.90;;;;;;5054518;28;20017;-77
2022/09/21 03:31:31;;;;;;;9.23;2.63;;;18.40;99.90;;;;;;5054378;28;20017;-80
2022/09/21 03:33:58;;;;;;;11.25;2.00;;;18.40;99.90;;;;;;5054373;28;20036;-80
2022/09/21 03:36:26;;;;;;;4.70;1.50;;;18.40;99.90;;;;;;5054575;28;20436;-82
2022/09/21 03:38:54;;;;;;;12.15;1.67;;;18.40;99.90;;;;;;5054316;28;20425;-82
2022/09/21 03:41:22;;;;;;;10.52;2.05;;;18.30;99.90;;;;;;5053336;28;20386;-78
2022/09/21 03:43:49;;;;;;;10.82;1.33;;;18.30;99.90;;;;;;5053870;28;20020;-82
2022/09/21 03:46:17;;;;;;;6.10;1.45;;;18.30;99.90;;;;;;5051186;28;20025;-76
2022/09/21 03:48:47;;;;;;;10.45;1.90;;;18.20;99.90;;;;;;5054199;28;20158;-83
2022/09/21 03:51:14;;;;;;;10.23;2.53;;;18.20;99.90;;;;;;5051628;28;20458;-78
2022/09/21 03:53:42;;;;;;;12.98;2.05;;;18.10;99.90;;;;;;5053869;28;20519;-76
2022/09/21 03:56:10;;;;;;;9.52;2.65;;;18.10;99.90;;;;;;5053641;28;20100;-80
2022/09/21 03:58:38;;;;;;;7.70;1.90;;;18.00;99.90;;;;;;5054214;28;20025;-78
2022/09/21 04:01:05;;;;;;;8.32;2.20;;;18.00;99.90;;;;;;5054338;28;20021;-74
2022/09/21 04:03:34;;;;;;;9.02;1.83;;;18.00;99.90;;;;;;5054231;28;20503;-82
2022/09/21 04:06:07;;;;;;;9.35;2.13;;;18.00;99.90;;;;;;5054241;28;20064;-80
2022/09/21 04:08:35;;;;;;;12.10;2.28;;;18.00;99.90;;;;;;5054369;28;20402;-81
2022/09/21 04:11:13;;;;;;;10.48;1.52;;;17.90;99.90;;;;;;5054191;28;20478;-82
2022/09/21 04:13:44;;;;;;;7.05;2.00;;;17.90;99.90;;;;;;5054453;28;20037;-81
2022/09/21 04:16:11;;;;;;;5.75;1.08;;;17.90;99.90;;;;;;5054414;28;20025;-80
2022/09/21 04:18:39;;;;;;;5.90;1.20;;;17.90;99.90;;;;;;5053886;28;20386;-72
2022/09/21 04:21:07;;;;;;;9.93;2.05;;;17.90;99.90;;;;;;5053913;28;20017;-75
2022/09/21 04:23:35;;;;;;;14.32;2.30;;;18.00;99.90;;;;;;5053825;28;20025;-72
2022/09/21 04:26:02;;;;;;;14.40;1.83;;;17.90;99.90;;;;;;5053763;28;20039;-79
2022/09/21 04:28:31;;;;;;;8.75;1.80;;;17.90;99.90;;;;;;5053761;28;20025;-79
2022/09/21 04:30:59;;;;;;;10.77;2.45;;;17.90;99.90;;;;;;5053528;28;20051;-79
2022/09/21 04:33:27;;;;;;;8.18;2.05;;;17.90;99.90;;;;;;5053047;28;20391;-85
2022/09/21 04:35:55;;;;;;;8.10;2.42;;;17.90;99.90;;;;;;5052666;28;20067;-83
2022/09/21 04:38:23;;;;;;;7.95;1.52;;;17.90;99.90;;;;;;5053110;28;20021;-82
2022/09/21 04:40:57;;;;;;;3.60;1.25;;;17.90;99.90;;;;;;5053241;28;20017;-83
2022/09/21 04:43:26;;;;;;;7.45;1.38;;;17.90;99.90;;;;;;5053012;28;20017;-84
2022/09/21 04:45:53;;;;;;;7.93;1.50;;;17.90;99.90;;;;;;5053761;28;20029;-83
2022/09/21 04:48:21;;;;;;;8.00;1.65;;;17.90;99.90;;;;;;5053395;28;20025;-82
2022/09/21 04:50:50;;;;;;;10.13;2.28;;;17.80;99.90;;;;;;5053419;28;20029;-84
2022/09/21 04:53:18;;;;;;;3.80;1.00;;;17.80;99.90;;;;;;5053333;28;20041;-74
2022/09/21 04:55:46;;;;;;;8.77;1.90;;;17.70;99.90;;;;;;5052255;28;20413;-83
2022/09/21 04:58:14;;;;;;;11.10;1.73;;;17.70;99.90;;;;;;5053452;28;20025;-83
2022/09/21 05:00:41;;;;;;;9.45;2.20;;;17.70;99.90;;;;;;5052102;28;20025;-82
2022/09/21 05:03:09;;;;;;;5.65;1.58;;;17.70;99.90;;;;;;5052389;28;20486;-82
2022/09/21 05:05:37;;;;;;;11.05;1.45;;;17.60;99.90;;;;;;5052642;28;20097;-73
2022/09/21 05:08:04;;;;;;;9.57;2.03;;;17.60;99.90;;;;;;5052725;28;20039;-77
2022/09/21 05:10:32;;;;;;;14.70;2.22;;;17.60;99.90;;;;;;5052242;28;20041;-79
2022/09/21 05:13:00;;;;;;;16.85;2.58;;;17.50;99.90;;;;;;5048977;28;20106;-72
2022/09/21 05:15:27;;;;;;;6.72;2.03;;;17.50;99.90;;;;;;5052706;28;20036;-73
2022/09/21 05:17:55;;;;;;;10.32;2.38;;;17.50;99.90;;;;;;5052479;28;20020;-73
2022/09/21 05:20:23;;;;;;;9.88;1.88;;;17.40;99.90;;;;;;5050356;28;20022;-75
2022/09/21 05:22:50;;;;;;;9.43;2.90;;;17.40;99.90;;;;;;5052692;28;20048;-81
2022/09/21 05:25:18;;;;;;;5.88;1.80;;;17.40;99.90;;;;;;5052198;28;20524;-71
2022/09/21 05:27:46;;;;;;;12.82;2.10;;;17.40;99.90;;;;;;5052591;28;20109;-82
2022/09/21 05:30:14;;;;;;;8.20;1.90;;;17.40;99.90;;;;;;5049986;28;20096;-82
2022/09/21 05:32:52;;;;;;;9.00;2.15;;;17.30;99.90;;;;;;5052546;28;20541;-82
2022/09/21 05:35:29;;;;;;;9.20;1.73;;;17.30;99.90;;;;;;5049184;28;20025;-79
2022/09/21 05:38:06;;;;;;;9.70;2.25;;;17.30;99.90;;;;;;5050390;28;20462;-78
2022/09/21 05:40:34;;;;;;;8.55;1.73;;;17.30;99.90;;;;;;5050168;28;20393;-79
2022/09/21 05:43:03;;;;;;;9.73;2.00;;;17.20;99.90;;;;;;5053039;28;20028;-79
2022/09/21 05:45:31;;;;;;;7.55;1.63;;;17.20;99.90;;;;;;5052581;28;20112;-72
2022/09/21 05:48:06;;;;;;;8.27;1.75;;;17.20;99.90;;;;;;5054387;28;20052;-75
2022/09/21 05:50:45;;;;;;;12.95;2.40;;;17.20;99.90;;;;;;5056705;28;20118;-79
2022/09/21 05:53:44;;;;;;;13.82;2.50;;;17.10;99.90;;;;;;5048815;28;20067;-77
2022/09/21 05:56:24;;;;;;;11.07;2.15;;;17.10;99.90;;;;;;5024958;28;20387;-83
2022/09/21 05:58:52;;;;;;;14.98;2.40;;;17.10;99.90;;;;;;5056191;28;20098;-77
2022/09/21 06:01:41;;;;;;;11.13;2.38;;;17.10;99.90;;;;;;5056152;28;20025;-82
2022/09/21 06:04:12;;;;;;;6.13;1.77;;;17.20;99.90;;;;;;5054128;28;20032;-83
2022/09/21 06:06:40;;;;;;;11.65;1.85;;;17.10;99.90;;;;;;5052456;28;20071;-78
2022/09/21 06:09:07;;;;;;;14.25;1.73;;;17.10;99.90;;;;;;5053279;28;20047;-81
2022/09/21 06:11:35;;;;;;;7.35;1.85;;;17.10;99.90;;;;;;5053264;28;20429;-82
2022/09/21 06:14:03;;;;;;;12.85;2.45;;;17.10;99.90;;;;;;5054354;28;20040;-82
2022/09/21 06:16:41;;;;;;;10.55;1.92;;;17.10;99.90;;;;;;5053729;28;20018;-81
2022/09/21 06:19:13;;;;;;;8.15;1.75;;;17.10;99.90;;;;;;5052270;28;20021;-72
2022/09/21 06:21:41;;;;;;;9.30;2.05;;;17.10;99.90;;;;;;5053057;28;20016;-74
2022/09/21 06:24:09;;;;;;;13.20;2.05;;;17.10;99.90;;;;;;5053788;28;20512;-72
2022/09/21 06:26:36;;;;;;;10.60;1.50;;;17.10;99.90;;;;;;5051313;28;20056;-73
2022/09/21 06:29:04;;;;;;;16.33;2.45;;;17.10;99.90;;;;;;5053688;28;20493;-76
2022/09/21 06:31:33;;;;;;;7.88;1.88;;;17.10;99.90;;;;;;5054577;28;20055;-74
2022/09/21 06:34:01;;;;;;;12.60;2.33;;;17.10;99.90;;;;;;5055763;28;20036;-82
2022/09/21 06:36:29;;;;;;;18.17;2.58;;;17.10;99.90;;;;;;5055752;28;20101;-76
2022/09/21 06:38:57;;;;;;;9.35;2.60;;;17.10;99.90;;;;;;5055540;28;20021;-73
2022/09/21 06:41:25;;;;;;;12.65;2.40;;;17.10;99.90;;;;;;5055423;28;20462;-82
2022/09/21 06:43:55;;;;;;;14.27;2.22;;;17.10;99.90;;;;;;5055864;28;20032;-82
2022/09/21 06:46:23;;;;;;;5.15;2.03;;;17.00;99.90;;;;;;5055793;28;20025;-82
2022/09/21 06:48:51;;;;;;;14.35;2.15;;;17.00;99.90;;;;;;5055619;28;20553;-82
2022/09/21 06:51:20;;;;;;;9.00;2.50;;;17.00;99.90;;;;;;5055263;28;20063;-75
2022/09/21 06:53:48;;;;;;;7.00;1.77;;;16.90;99.90;;;;;;5055204;28;20125;-74
2022/09/21 06:56:15;;;;;;;11.18;1.90;;;16.90;99.90;;;;;;5055264;28;20100;-75
2022/09/21 06:58:46;;;;;;;12.07;2.92;;;16.90;99.90;;;;;;5054335;28;20118;-72
2022/09/21 07:01:15;;;;;;;9.18;2.58;;;16.90;99.90;;;;;;5055630;28;20028;-83
2022/09/21 07:03:43;;;;;;;6.72;1.67;;;16.90;99.90;;;;;;5055642;28;20044;-83
2022/09/21 07:06:14;;;;;;;9.20;2.42;;;16.90;99.90;;;;;;5055739;28;20017;-76
2022/09/21 07:08:43;;;;;;;8.35;1.85;;;16.80;99.90;;;;;;5055108;28;20021;-80
2022/09/21 07:11:12;;;;;;;13.85;2.63;;;16.90;99.90;;;;;;5051734;28;20425;-77
2022/09/21 07:13:41;;;;;;;10.60;2.53;;;16.80;99.90;;;;;;5054812;28;20033;-75
2022/09/21 07:16:10;;;;;;;7.53;1.65;;;16.80;99.90;;;;;;5055009;28;20029;-76
2022/09/21 07:18:39;;;;;;;10.90;2.17;;;16.80;99.90;;;;;;5054167;28;20035;-76
2022/09/21 07:21:08;;;;;;;10.30;1.98;;;16.80;99.90;;;;;;5053086;28;20441;-77
2022/09/21 07:23:37;;;;;;;6.47;1.50;;;16.80;99.90;;;;;;5054824;28;20040;-77
2022/09/21 07:26:08;;;;;;;9.63;2.15;;;16.80;99.90;;;;;;5055105;28;20017;-78
2022/09/21 07:28:36;;;;;;;11.15;2.10;;;16.80;99.90;;;;;;5055209;28;20482;-77
2022/09/21 07:31:10;;;;;;;10.20;2.28;;;16.70;99.90;;;;;;5053922;28;20032;-79
2022/09/21 07:33:37;;;;;;;12.45;2.38;;;16.70;99.90;;;;;;5054495;28;20060;-77
2022/09/21 07:36:09;;;;;;;9.93;3.35;;;16.70;99.90;;;;;;5054617;28;20055;-78
2022/09/21 07:38:41;;;;;;;7.72;1.60;;;16.70;99.90;;;;;;5054797;28;20536;-78
2022/09/21 07:41:11;;;;;;;8.25;1.67;;;16.70;99.90;;;;;;5054460;28;20048;-78
2022/09/21 07:43:39;;;;;;;9.32;1.98;;;16.70;99.90;;;;;;5054204;28;20021;-79
2022/09/21 07:46:08;;;;;;;7.22;2.42;;;16.70;99.90;;;;;;5054422;28;20025;-75
2022/09/21 07:48:36;;;;;;;6.60;2.03;;;16.50;99.90;;;;;;5054564;28;20029;-78
2022/09/21 07:51:06;;;;;;;8.40;1.75;;;16.50;99.90;;;;;;5053828;28;20029;-79
2022/09/21 07:53:37;;;;;;;10.20;1.65;;;16.50;99.90;;;;;;5053549;28;20036;-78
2022/09/21 07:56:08;;;;;;;12.18;2.70;;;16.50;99.90;;;;;;5054079;28;20469;-78
2022/09/21 08:01:40;;;;;;;11.75;3.28;;;16.40;99.90;;;;;;5051290;28;20048;-72
2022/09/21 08:04:10;;;;;;;11.02;2.42;;;16.40;99.90;;;;;;5052786;28;20032;-82
2022/09/21 08:06:41;;;;;;;10.98;2.70;;;16.30;99.90;;;;;;5053056;28;20056;-83
2022/09/21 08:09:09;;;;;;;9.07;2.70;;;16.40;99.90;;;;;;5054029;28;20441;-83
2022/09/21 08:11:36;;;;;;;7.53;2.60;;;16.30;99.90;;;;;;5055296;28;20025;-84
2022/09/21 08:14:04;;;;;;;8.88;2.67;;;16.30;99.90;;;;;;5051382;28;20033;-84
2022/09/21 08:16:32;;;;;;;8.10;2.97;;;16.30;99.90;;;;;;5049573;28;20055;-82
2022/09/21 08:19:01;;;;;;;9.63;2.65;;;16.30;99.90;;;;;;5050083;28;20539;-85
2022/09/21 08:21:29;;;;;;;13.82;4.03;;;16.30;99.90;;;;;;5050527;28;20121;-82
2022/09/21 08:23:57;;;;;;;14.38;2.50;;;16.20;99.90;;;;;;5052996;28;20492;-84
2022/09/21 08:26:25;;;;;;;8.48;2.08;;;16.20;99.90;;;;;;5051577;28;20021;-85
2022/09/21 08:28:56;;;;;;;15.43;2.85;;;16.20;99.90;;;;;;5052509;28;20017;-86
2022/09/21 08:31:24;;;;;;;11.13;2.65;;;16.10;99.90;;;;;;5053392;28;20027;-85
2022/09/21 08:33:54;;;;;;;7.00;2.05;;;16.10;99.90;;;;;;5053506;28;20029;-77
2022/09/21 08:36:21;;;;;;;12.27;3.40;;;16.10;99.90;;;;;;5053318;28;20040;-83
2022/09/21 08:38:49;;;;;;;7.72;3.20;;;16.00;99.90;;;;;;5053839;28;20460;-73
2022/09/21 08:41:35;;;;;;;13.48;3.78;;;16.00;99.90;;;;;;5053476;28;20029;-84
2022/09/21 08:44:18;;;;;;;6.60;2.40;;;16.00;99.90;;;;;;5036355;28;20029;-71
2022/09/21 08:46:56;;;;;;;10.27;3.08;;;16.00;99.90;;;;;;5034987;28;20025;-75
2022/09/21 08:49:31;;;;;;;6.70;3.53;;;16.00;99.90;;;;;;5032813;28;20091;-85
2022/09/21 08:52:10;;;;;;;11.57;3.00;;;16.00;99.90;;;;;;5037384;28;20021;-85
2022/09/21 08:54:48;;;;;;;14.45;3.70;;;16.00;99.90;;;;;;5042448;28;20466;-85
2022/09/21 08:57:17;;;;;;;6.20;2.58;;;15.90;99.90;;;;;;5035506;28;20029;-85
2022/09/21 08:59:49;;;;;;;15.93;3.05;;;15.90;99.90;;;;;;5033825;28;20025;-86
2022/09/21 09:02:48;;;;;;;9.05;3.83;;;15.80;99.90;;;;;;5033727;28;20045;-84
2022/09/21 09:05:47;;;;;;;5.97;2.92;;;15.80;99.90;;;;;;5051106;28;20129;-84
2022/09/21 09:08:33;;;;;;;11.27;3.60;;;15.80;99.90;;;;;;5033117;28;20014;-84
2022/09/21 09:11:29;;;;;;;;;;;15.80;99.90;;;;;;5033187;28;20022;-83
2022/09/21 09:14:24;;;;;;;12.85;3.55;;;15.80;99.90;;;;;;5026320;28;19917;-87
2022/09/21 09:17:16;;;;;;;9.43;3.67;;;15.80;99.90;;;;;;5032002;28;20163;-79
2022/09/21 09:19:47;;;;;;;9.95;3.35;;;15.80;99.90;;;;;;5031488;28;20478;-85
2022/09/21 09:22:23;;;;;;;6.30;2.72;;;15.80;99.90;;;;;;5038044;28;20478;-84
2022/09/21 09:24:57;;;;;;;9.45;3.35;;;15.70;99.90;;;;;;5037619;28;20072;-85
2022/09/21 09:27:33;;;;;;;10.03;3.40;;;15.70;99.90;;;;;;5036109;28;20056;-85
2022/09/21 09:30:36;;;;;;;8.82;3.80;;;15.60;99.90;;;;;;5036351;28;20025;-81
2022/09/21 09:33:24;;;;;;;11.60;2.75;;;15.70;99.90;;;;;;5032380;28;20045;-80
2022/09/21 09:36:11;;;;;;;8.98;2.58;;;15.60;99.90;;;;;;5033801;28;20064;-74
2022/09/21 09:39:01;;;;;;;5.95;2.13;;;15.60;99.90;;;;;;5037377;28;20076;-72
2022/09/21 09:41:56;;;;;;;5.43;2.55;;;15.60;99.90;;;;;;5038999;28;20132;-84
2022/09/21 09:44:57;;;;;;;6.03;2.70;;;15.50;99.90;;;;;;5038090;28;20032;-84
2022/09/21 09:47:43;;;;;;;8.95;2.03;;;15.50;99.90;;;;;;5036136;28;20020;-84
2022/09/21 09:50:11;;;;;;;9.65;2.92;;;15.40;99.90;;;;;;5038495;28;20099;-85
2022/09/21 09:52:40;;;;;;;7.63;3.00;;;15.40;99.90;;;;;;5037224;28;20017;-85
2022/09/21 09:55:31;;;;;;;5.57;2.33;;;15.40;99.90;;;;;;5038970;28;20021;-85
2022/09/21 09:57:59;;;;;;;11.18;2.67;;;15.40;99.90;;;;;;5036618;28;20021;-82
2022/09/21 10:00:30;;;;;;;8.90;3.05;;;15.30;99.90;;;;;;5040350;28;20076;-78
2022/09/21 10:02:58;;;;;;;3.35;2.13;;;15.20;99.90;;;;;;5035727;28;20052;-84
2022/09/21 10:05:33;;;;;;;7.00;2.50;;;15.30;99.90;;;;;;5035890;28;20017;-86
2022/09/21 10:08:02;;;;;;;6.30;2.50;;;15.30;99.90;;;;;;5056454;28;20031;-80
2022/09/21 10:10:39;;;;;;;6.55;2.40;;;15.20;99.90;;;;;;5071285;28;20041;-83
2022/09/21 10:13:21;;;;;;;7.88;2.65;;;15.20;99.90;;;;;;5074596;28;20031;-78
2022/09/21 10:15:52;;;;;;;8.73;2.72;;;15.20;99.90;;;;;;5072241;28;20031;-85
2022/09/21 10:18:43;;;;;;;8.27;2.95;;;15.20;99.90;;;;;;5071527;28;20051;-85
2022/09/21 10:21:45;;;;;;;6.03;2.40;;;15.20;99.90;;;;;;5068739;28;20029;-85
2022/09/21 10:24:33;;;;;;;12.57;4.10;;;15.30;99.90;;;;;;5047383;28;20394;-85
2022/09/21 10:27:16;;;;;;;12.70;3.53;;;15.30;99.90;;;;;;5047029;28;20086;-83
2022/09/21 10:29:47;;;;;;;9.68;2.88;;;15.40;99.90;;;;;;5052565;28;20025;-84
2022/09/21 10:32:26;;;;;;;18.83;2.60;;;15.50;99.90;;;;;;5052952;28;20016;-72
2022/09/21 10:35:09;;;;;;;10.55;3.38;;;15.40;99.90;;;;;;5052209;28;20095;-73
2022/09/21 10:37:40;;;;;;;11.60;3.47;;;15.50;99.90;;;;;;5049507;28;20410;-76
2022/09/21 10:40:29;;;;;;;7.75;2.35;;;15.50;99.90;;;;;;5037286;28;20544;-79
2022/09/21 10:42:59;;;;;;;8.75;2.70;;;15.50;99.90;;;;;;5036174;28;20060;-81
2022/09/21 10:45:29;;;;;;;18.67;2.78;;;15.50;99.90;;;;;;5037898;28;20037;-77
2022/09/21 10:48:09;;;;;;;16.13;3.95;;;15.60;99.90;;;;;;5035860;28;20405;-76
2022/09/21 10:50:55;;;;;;;14.05;2.60;;;15.60;99.90;;;;;;5035141;28;20024;-76
2022/09/21 10:53:27;;;;;;;13.48;2.55;;;15.60;99.90;;;;;;5036328;28;20386;-79
2022/09/21 10:56:01;;;;;;;10.98;3.45;;;15.60;99.90;;;;;;5036963;28;20028;-75
2022/09/21 10:58:30;;;;;;;15.93;3.00;;;15.60;99.90;;;;;;5037707;28;20466;-81
2022/09/21 11:01:12;;;;;;;14.80;2.78;;;15.60;99.90;;;;;;5039173;28;20076;-81
2022/09/21 11:04:07;;;;;;;13.95;2.83;;;15.60;99.90;;;;;;5036106;28;20045;-80
2022/09/21 11:06:43;;;;;;;17.88;3.78;;;15.60;99.90;;;;;;5034976;28;20022;-84
2022/09/21 11:09:32;;;;;;;7.80;2.47;;;15.60;99.90;;;;;;5050057;28;20387;-79
2022/09/21 11:12:44;;;;;;;6.80;2.42;;;15.60;99.90;;;;;;5034035;28;20104;-84
2022/09/21 11:15:23;;;;;;;14.68;2.55;;;15.50;99.90;;;;;;5036215;28;20021;-83
2022/09/21 11:18:00;;;;;;;14.23;3.65;;;15.50;99.90;;;;;;5035622;28;20089;-82
2022/09/21 11:20:39;;;;;;;12.52;2.60;;;15.50;99.90;;;;;;5035191;28;20065;-80
2022/09/21 11:23:46;;;;;;;9.85;2.13;;;15.50;99.90;;;;;;5037105;28;20486;-85
2022/09/21 11:26:24;;;;;;;10.20;2.22;;;15.50;99.90;;;;;;5035969;28;20025;-81
2022/09/21 11:29:00;;;;;;;14.63;2.75;;;15.40;99.90;;;;;;5034856;28;20024;-84
2022/09/21 11:31:34;;;;;;;9.80;2.40;;;15.40;99.90;;;;;;5034273;28;20449;-78
2022/09/21 11:34:16;;;;;;;13.68;2.63;;;15.40;99.90;;;;;;5033474;28;20030;-83
2022/09/21 11:36:57;;;;;;;10.68;2.42;;;15.40;99.90;;;;;;5037305;28;20013;-84
2022/09/21 11:39:31;;;;;;;8.02;2.80;;;15.40;99.90;;;;;;5050369;28;20030;-83
2022/09/21 11:42:19;;;;;;;10.63;1.92;;;15.40;99.90;;;;;;5034809;28;20013;-79
2022/09/21 11:45:23;;;;;;;15.20;3.10;;;15.40;99.90;;;;;;5034424;28;20014;-84
2022/09/21 11:48:28;;;;;;;10.00;3.13;;;15.30;99.90;;;;;;5034162;28;20025;-84
2022/09/21 11:51:05;;;;;;;8.95;1.88;;;15.30;99.90;;;;;;5034559;28;20027;-79
2022/09/21 11:53:43;;;;;;;13.18;2.97;;;15.30;99.90;;;;;;5035405;28;20379;-78
2022/09/21 11:56:34;;;;;;;9.75;2.40;;;15.30;99.90;;;;;;5034072;28;20026;-84
2022/09/21 11:59:30;;;;;;;13.65;3.03;;;15.30;99.90;;;;;;5034427;28;20017;-76
2022/09/21 12:02:17;;;;;;;8.98;2.15;;;15.30;99.90;;;;;;5041774;28;20091;-83
2022/09/21 12:05:02;;;;;;;11.57;2.55;;;15.30;99.90;;;;;;5055927;28;20033;-80
2022/09/21 12:08:14;;;;;;;9.10;2.65;;;15.30;99.90;;;;;;5057111;28;20020;-80
2022/09/21 12:11:15;;;;;;;15.98;2.50;;;15.30;99.90;;;;;;5053333;28;20053;-78
2022/09/21 12:14:14;;;;;;;8.80;2.10;;;15.30;99.90;;;;;;5051087;28;20021;-89
2022/09/21 12:17:01;;;;;;;14.18;2.58;;;15.30;99.90;;;;;;5038983;28;20108;-86
2022/09/21 12:19:45;;;;;;;8.05;2.70;;;15.40;99.90;;;;;;5052793;28;20107;-82
2022/09/21 12:22:42;;;;;;;6.35;2.05;;;15.40;99.90;;;;;;5052937;28;20017;-86
2022/09/21 12:25:27;;;;;;;17.92;3.40;;;15.30;99.90;;;;;;5052889;28;20052;-86
2022/09/21 12:27:54;;;;;;;13.55;2.63;;;15.30;99.90;;;;;;5050963;28;20048;-87
2022/09/21 12:30:23;;;;;;;11.35;2.45;;;15.30;99.90;;;;;;5052230;28;20112;-85
2022/09/21 12:33:07;;;;;;;13.93;3.92;;;15.30;99.90;;;;;;5053169;28;20381;-88
2022/09/21 12:35:42;;;;;;;16.58;3.85;;;15.30;99.90;;;;;;5051604;28;20432;-84
2022/09/21 12:38:13;;;;;;;10.93;2.85;;;15.30;99.90;;;;;;5051557;28;20020;-86
2022/09/21 12:41:05;;;;;;;9.32;3.00;;;15.30;99.90;;;;;;5053208;28;20028;-85
2022/09/21 12:43:48;;;;;;;11.60;3.25;;;15.30;99.90;;;;;;5050362;28;20024;-87
2022/09/21 12:46:28;;;;;;;10.20;2.35;;;15.30;99.90;;;;;;5052068;28;20021;-87
2022/09/21 12:48:58;;;;;;;8.88;2.50;;;15.30;99.90;;;;;;5052121;28;20017;-86
2022/09/21 12:51:39;;;;;;;12.30;2.40;;;15.30;99.90;;;;;;5050917;28;20079;-86
2022/09/21 12:54:36;;;;;;;10.18;2.95;;;15.30;99.90;;;;;;5050984;28;20043;-88
2022/09/21 12:57:30;;;;;;;10.27;2.30;;;15.30;99.90;;;;;;5052972;28;20103;-87
2022/09/21 13:00:05;;;;;;;9.80;2.47;;;15.30;99.90;;;;;;5052484;28;20022;-86
2022/09/21 13:02:49;;;;;;;10.88;3.05;;;15.30;99.90;;;;;;5053545;28;20405;-87
2022/09/21 13:05:38;;;;;;;7.25;2.63;;;15.20;99.90;;;;;;5053750;28;20033;-83
2022/09/21 13:08:14;;;;;;;9.85;2.78;;;15.20;99.90;;;;;;5053868;28;20029;-86
2022/09/21 13:11:03;;;;;;;8.52;3.05;;;15.20;99.90;;;;;;5053650;28;20029;-82
2022/09/21 13:13:58;;;;;;;9.93;2.55;;;15.20;99.90;;;;;;5053252;28;20037;-87
2022/09/21 13:16:38;;;;;;;8.20;2.13;;;15.20;99.90;;;;;;5053759;28;20493;-87
2022/09/21 13:19:28;;;;;;;14.55;3.05;;;15.20;99.90;;;;;;5053475;28;20025;-87
2022/09/21 13:22:18;;;;;;;12.48;3.20;;;15.20;99.90;;;;;;5053629;28;20029;-88
2022/09/21 13:25:14;;;;;;;8.45;2.63;;;15.20;99.90;;;;;;5053876;28;20040;-88
2022/09/21 13:28:15;;;;;;;10.98;2.38;;;15.20;99.90;;;;;;5053774;28;20028;-88
2022/09/21 13:30:45;;;;;;;12.30;2.50;;;15.30;99.90;;;;;;5053341;28;20089;-88